sensor_id;sensor_type;location;lat;lon;timestamp;P1;durP1;ratioP1;P2;durP2;ratioP2
24547;SDS011;12713;51.624;4.924;2023-10-08T00:03:19;14.65;;;5.47;;
24547;SDS011;12713;51.624;4.924;2023-10-08T00:05:53;12.43;;;4.88;;
24547;SDS011;12713;51.624;4.924;2023-10-08T00:08:19;16.05;;;5.30;;
24547;SDS011;12713;51.624;4.924;2023-10-08T00:10:46;12.23;;;5.10;;
24547;SDS011;12713;51.624;4.924;2023-10-08T00:13:13;10.02;;;5.18;;
24547;SDS011;12713;51.624;4.924;2023-10-08T00:15:43;12.40;;;4.82;;
24547;SDS011;12713;51.624;4.924;2023-10-08T00:18:20;8.30;;;4.72;;
24547;SDS011;12713;51.624;4.924;2023-10-08T00:20:47;12.82;;;5.00;;
24547;SDS011;12713;51.624;4.924;2023-10-08T00:23:31;15.68;;;4.95;;
24547;SDS011;12713;51.624;4.924;2023-10-08T00:26:00;8.82;;;4.72;;
24547;SDS011;12713;51.624;4.924;2023-10-08T00:28:30;13.90;;;4.82;;
24547;SDS011;12713;51.624;4.924;2023-10-08T00:30:57;14.07;;;4.78;;
24547;SDS011;12713;51.624;4.924;2023-10-08T00:33:30;13.25;;;4.78;;
24547;SDS011;12713;51.624;4.924;2023-10-08T00:35:56;14.18;;;4.95;;
24547;SDS011;12713;51.624;4.924;2023-10-08T00:38:22;14.52;;;5.07;;
24547;SDS011;12713;51.624;4.924;2023-10-08T00:40:56;13.23;;;4.93;;
24547;SDS011;12713;51.624;4.924;2023-10-08T00:43:29;14.82;;;4.60;;
24547;SDS011;12713;51.624;4.924;2023-10-08T00:45:58;10.60;;;4.80;;
24547;SDS011;12713;51.624;4.924;2023-10-08T00:48:24;12.07;;;5.15;;
24547;SDS011;12713;51.624;4.924;2023-10-08T00:50:53;12.63;;;4.93;;
24547;SDS011;12713;51.624;4.924;2023-10-08T00:53:34;15.90;;;4.93;;
24547;SDS011;12713;51.624;4.924;2023-10-08T00:56:04;13.43;;;5.32;;
24547;SDS011;12713;51.624;4.924;2023-10-08T00:58:38;17.35;;;5.10;;
24547;SDS011;12713;51.624;4.924;2023-10-08T01:01:05;9.45;;;4.63;;
24547;SDS011;12713;51.624;4.924;2023-10-08T01:03:36;11.93;;;4.75;;
24547;SDS011;12713;51.624;4.924;2023-10-08T01:06:10;11.73;;;4.82;;
24547;SDS011;12713;51.624;4.924;2023-10-08T01:08:36;14.18;;;5.70;;
24547;SDS011;12713;51.624;4.924;2023-10-08T01:11:18;12.57;;;5.40;;
24547;SDS011;12713;51.624;4.924;2023-10-08T01:13:46;11.80;;;4.57;;
24547;SDS011;12713;51.624;4.924;2023-10-08T01:16:14;14.50;;;4.82;;
24547;SDS011;12713;51.624;4.924;2023-10-08T01:18:40;12.82;;;4.82;;
24547;SDS011;12713;51.624;4.924;2023-10-08T01:21:12;12.93;;;5.15;;
24547;SDS011;12713;51.624;4.924;2023-10-08T01:23:54;14.57;;;5.97;;
24547;SDS011;12713;51.624;4.924;2023-10-08T01:26:20;14.18;;;5.15;;
24547;SDS011;12713;51.624;4.924;2023-10-08T01:28:47;13.43;;;6.10;;
24547;SDS011;12713;51.624;4.924;2023-10-08T01:31:14;11.52;;;5.55;;
24547;SDS011;12713;51.624;4.924;2023-10-08T01:33:40;18.17;;;5.32;;
24547;SDS011;12713;51.624;4.924;2023-10-08T01:36:14;11.50;;;4.68;;
24547;SDS011;12713;51.624;4.924;2023-10-08T01:38:41;14.52;;;5.70;;
24547;SDS011;12713;51.624;4.924;2023-10-08T01:41:07;16.13;;;5.97;;
24547;SDS011;12713;51.624;4.924;2023-10-08T01:43:52;12.18;;;4.90;;
24547;SDS011;12713;51.624;4.924;2023-10-08T01:46:18;12.77;;;5.10;;
24547;SDS011;12713;51.624;4.924;2023-10-08T01:48:47;12.40;;;4.78;;
24547;SDS011;12713;51.624;4.924;2023-10-08T01:51:15;13.27;;;5.43;;
24547;SDS011;12713;51.624;4.924;2023-10-08T01:53:54;14.02;;;5.35;;
24547;SDS011;12713;51.624;4.924;2023-10-08T01:56:23;16.08;;;5.60;;
24547;SDS011;12713;51.624;4.924;2023-10-08T01:58:49;13.98;;;5.20;;
24547;SDS011;12713;51.624;4.924;2023-10-08T02:01:19;13.98;;;5.63;;
24547;SDS011;12713;51.624;4.924;2023-10-08T02:03:45;11.90;;;4.63;;
24547;SDS011;12713;51.624;4.924;2023-10-08T02:06:11;12.60;;;4.97;;
24547;SDS011;12713;51.624;4.924;2023-10-08T02:08:37;16.27;;;5.57;;
24547;SDS011;12713;51.624;4.924;2023-10-08T02:11:03;14.52;;;6.18;;
24547;SDS011;12713;51.624;4.924;2023-10-08T02:13:30;10.70;;;4.88;;
24547;SDS011;12713;51.624;4.924;2023-10-08T02:15:59;15.68;;;5.43;;
24547;SDS011;12713;51.624;4.924;2023-10-08T02:18:26;14.43;;;5.55;;
24547;SDS011;12713;51.624;4.924;2023-10-08T02:20:54;16.33;;;5.22;;
24547;SDS011;12713;51.624;4.924;2023-10-08T02:23:23;16.00;;;5.78;;
24547;SDS011;12713;51.624;4.924;2023-10-08T02:25:49;14.30;;;5.35;;
24547;SDS011;12713;51.624;4.924;2023-10-08T02:28:15;19.75;;;5.90;;
24547;SDS011;12713;51.624;4.924;2023-10-08T02:30:45;12.07;;;4.82;;
24547;SDS011;12713;51.624;4.924;2023-10-08T02:33:11;13.45;;;5.45;;
24547;SDS011;12713;51.624;4.924;2023-10-08T02:35:41;14.52;;;5.22;;
24547;SDS011;12713;51.624;4.924;2023-10-08T02:38:16;18.92;;;6.15;;
24547;SDS011;12713;51.624;4.924;2023-10-08T02:40:46;13.50;;;4.85;;
24547;SDS011;12713;51.624;4.924;2023-10-08T02:43:13;17.15;;;5.72;;
24547;SDS011;12713;51.624;4.924;2023-10-08T02:45:40;20.38;;;5.38;;
24547;SDS011;12713;51.624;4.924;2023-10-08T02:48:07;18.85;;;5.90;;
24547;SDS011;12713;51.624;4.924;2023-10-08T02:50:41;16.50;;;5.28;;
24547;SDS011;12713;51.624;4.924;2023-10-08T02:53:11;12.90;;;5.35;;
24547;SDS011;12713;51.624;4.924;2023-10-08T02:55:40;19.17;;;5.75;;
24547;SDS011;12713;51.624;4.924;2023-10-08T02:58:09;11.02;;;4.57;;
24547;SDS011;12713;51.624;4.924;2023-10-08T03:00:44;17.88;;;5.43;;
24547;SDS011;12713;51.624;4.924;2023-10-08T03:03:12;11.35;;;5.75;;
24547;SDS011;12713;51.624;4.924;2023-10-08T03:05:47;13.85;;;5.53;;
24547;SDS011;12713;51.624;4.924;2023-10-08T03:10:49;17.65;;;5.65;;
24547;SDS011;12713;51.624;4.924;2023-10-08T03:13:20;15.23;;;5.75;;
24547;SDS011;12713;51.624;4.924;2023-10-08T03:15:47;11.70;;;4.65;;
24547;SDS011;12713;51.624;4.924;2023-10-08T03:18:25;12.73;;;5.10;;
24547;SDS011;12713;51.624;4.924;2023-10-08T03:20:59;10.40;;;5.25;;
24547;SDS011;12713;51.624;4.924;2023-10-08T03:23:28;11.27;;;4.97;;
24547;SDS011;12713;51.624;4.924;2023-10-08T03:26:02;14.63;;;6.22;;
24547;SDS011;12713;51.624;4.924;2023-10-08T03:31:03;15.85;;;5.30;;
24547;SDS011;12713;51.624;4.924;2023-10-08T03:33:34;16.30;;;5.40;;
24547;SDS011;12713;51.624;4.924;2023-10-08T03:36:02;17.00;;;5.90;;
24547;SDS011;12713;51.624;4.924;2023-10-08T03:38:39;15.82;;;4.88;;
24547;SDS011;12713;51.624;4.924;2023-10-08T03:41:10;19.67;;;5.88;;
24547;SDS011;12713;51.624;4.924;2023-10-08T03:43:44;17.00;;;5.43;;
24547;SDS011;12713;51.624;4.924;2023-10-08T03:46:30;19.88;;;6.72;;
24547;SDS011;12713;51.624;4.924;2023-10-08T03:48:56;15.63;;;5.70;;
24547;SDS011;12713;51.624;4.924;2023-10-08T03:51:31;18.35;;;6.22;;
24547;SDS011;12713;51.624;4.924;2023-10-08T03:54:04;19.77;;;6.50;;
24547;SDS011;12713;51.624;4.924;2023-10-08T03:56:44;12.10;;;5.20;;
24547;SDS011;12713;51.624;4.924;2023-10-08T04:01:46;11.27;;;5.32;;
24547;SDS011;12713;51.624;4.924;2023-10-08T04:04:14;21.42;;;6.88;;
24547;SDS011;12713;51.624;4.924;2023-10-08T04:06:41;15.75;;;6.22;;
24547;SDS011;12713;51.624;4.924;2023-10-08T04:09:14;15.38;;;5.63;;
24547;SDS011;12713;51.624;4.924;2023-10-08T04:11:56;16.15;;;6.50;;
24547;SDS011;12713;51.624;4.924;2023-10-08T04:14:36;16.63;;;6.97;;
24547;SDS011;12713;51.624;4.924;2023-10-08T04:17:02;13.68;;;5.40;;
24547;SDS011;12713;51.624;4.924;2023-10-08T04:19:29;12.98;;;5.78;;
24547;SDS011;12713;51.624;4.924;2023-10-08T04:21:57;12.30;;;5.20;;
24547;SDS011;12713;51.624;4.924;2023-10-08T04:24:26;14.88;;;5.90;;
24547;SDS011;12713;51.624;4.924;2023-10-08T04:27:02;12.60;;;5.60;;
24547;SDS011;12713;51.624;4.924;2023-10-08T04:29:34;15.38;;;6.00;;
24547;SDS011;12713;51.624;4.924;2023-10-08T04:32:02;15.25;;;6.25;;
24547;SDS011;12713;51.624;4.924;2023-10-08T04:34:46;19.75;;;6.65;;
24547;SDS011;12713;51.624;4.924;2023-10-08T04:37:14;11.60;;;5.47;;
24547;SDS011;12713;51.624;4.924;2023-10-08T04:39:45;13.98;;;5.75;;
24547;SDS011;12713;51.624;4.924;2023-10-08T04:42:23;13.30;;;5.55;;
24547;SDS011;12713;51.624;4.924;2023-10-08T04:44:51;22.08;;;6.50;;
24547;SDS011;12713;51.624;4.924;2023-10-08T04:47:20;13.90;;;5.63;;
24547;SDS011;12713;51.624;4.924;2023-10-08T04:50:00;13.13;;;5.00;;
24547;SDS011;12713;51.624;4.924;2023-10-08T04:52:29;13.60;;;4.97;;
24547;SDS011;12713;51.624;4.924;2023-10-08T04:54:59;13.20;;;5.63;;
24547;SDS011;12713;51.624;4.924;2023-10-08T04:57:37;14.73;;;5.05;;
24547;SDS011;12713;51.624;4.924;2023-10-08T05:00:06;17.00;;;5.72;;
24547;SDS011;12713;51.624;4.924;2023-10-08T05:02:37;14.55;;;5.38;;
24547;SDS011;12713;51.624;4.924;2023-10-08T05:05:16;13.95;;;5.63;;
24547;SDS011;12713;51.624;4.924;2023-10-08T05:07:42;15.02;;;5.60;;
24547;SDS011;12713;51.624;4.924;2023-10-08T05:10:12;16.40;;;6.20;;
24547;SDS011;12713;51.624;4.924;2023-10-08T05:12:50;13.13;;;5.38;;
24547;SDS011;12713;51.624;4.924;2023-10-08T05:15:36;16.05;;;5.65;;
24547;SDS011;12713;51.624;4.924;2023-10-08T05:18:10;13.85;;;5.97;;
24547;SDS011;12713;51.624;4.924;2023-10-08T05:20:44;20.20;;;5.95;;
24547;SDS011;12713;51.624;4.924;2023-10-08T05:23:14;12.85;;;5.47;;
24547;SDS011;12713;51.624;4.924;2023-10-08T05:25:47;15.10;;;6.18;;
24547;SDS011;12713;51.624;4.924;2023-10-08T05:28:28;14.52;;;5.65;;
24547;SDS011;12713;51.624;4.924;2023-10-08T05:30:55;16.00;;;5.85;;
24547;SDS011;12713;51.624;4.924;2023-10-08T05:33:37;16.67;;;5.82;;
24547;SDS011;12713;51.624;4.924;2023-10-08T05:36:23;17.85;;;5.93;;
24547;SDS011;12713;51.624;4.924;2023-10-08T05:39:15;19.75;;;6.32;;
24547;SDS011;12713;51.624;4.924;2023-10-08T05:42:04;12.95;;;5.53;;
24547;SDS011;12713;51.624;4.924;2023-10-08T05:44:51;13.60;;;6.30;;
24547;SDS011;12713;51.624;4.924;2023-10-08T05:47:35;17.52;;;6.75;;
24547;SDS011;12713;51.624;4.924;2023-10-08T05:50:01;13.80;;;5.97;;
24547;SDS011;12713;51.624;4.924;2023-10-08T05:52:46;14.65;;;6.90;;
24547;SDS011;12713;51.624;4.924;2023-10-08T05:55:38;19.63;;;7.20;;
24547;SDS011;12713;51.624;4.924;2023-10-08T05:58:13;15.40;;;6.97;;
24547;SDS011;12713;51.624;4.924;2023-10-08T06:00:49;19.10;;;8.57;;
24547;SDS011;12713;51.624;4.924;2023-10-08T06:03:15;21.95;;;8.50;;
24547;SDS011;12713;51.624;4.924;2023-10-08T06:06:00;19.20;;;7.72;;
24547;SDS011;12713;51.624;4.924;2023-10-08T06:08:36;24.25;;;8.85;;
24547;SDS011;12713;51.624;4.924;2023-10-08T06:11:20;17.95;;;7.85;;
24547;SDS011;12713;51.624;4.924;2023-10-08T06:14:06;20.40;;;7.47;;
24547;SDS011;12713;51.624;4.924;2023-10-08T06:16:42;20.77;;;7.55;;
24547;SDS011;12713;51.624;4.924;2023-10-08T06:19:13;13.50;;;6.80;;
24547;SDS011;12713;51.624;4.924;2023-10-08T06:21:40;16.50;;;7.32;;
24547;SDS011;12713;51.624;4.924;2023-10-08T06:24:07;15.68;;;7.00;;
24547;SDS011;12713;51.624;4.924;2023-10-08T06:26:39;23.00;;;7.90;;
24547;SDS011;12713;51.624;4.924;2023-10-08T06:29:13;19.65;;;8.57;;
24547;SDS011;12713;51.624;4.924;2023-10-08T06:31:52;17.02;;;7.10;;
24547;SDS011;12713;51.624;4.924;2023-10-08T06:34:20;23.90;;;8.48;;
24547;SDS011;12713;51.624;4.924;2023-10-08T06:36:47;19.30;;;6.55;;
24547;SDS011;12713;51.624;4.924;2023-10-08T06:39:13;15.55;;;6.80;;
24547;SDS011;12713;51.624;4.924;2023-10-08T06:41:44;21.20;;;9.30;;
24547;SDS011;12713;51.624;4.924;2023-10-08T06:44:11;21.63;;;8.45;;
24547;SDS011;12713;51.624;4.924;2023-10-08T06:46:40;19.55;;;7.18;;
24547;SDS011;12713;51.624;4.924;2023-10-08T06:49:07;16.00;;;7.57;;
24547;SDS011;12713;51.624;4.924;2023-10-08T06:51:42;12.13;;;6.25;;
24547;SDS011;12713;51.624;4.924;2023-10-08T06:54:09;14.30;;;7.23;;
24547;SDS011;12713;51.624;4.924;2023-10-08T06:56:39;16.23;;;7.15;;
24547;SDS011;12713;51.624;4.924;2023-10-08T06:59:11;20.45;;;7.13;;
24547;SDS011;12713;51.624;4.924;2023-10-08T07:01:41;16.95;;;7.47;;
24547;SDS011;12713;51.624;4.924;2023-10-08T07:04:11;20.33;;;8.02;;
24547;SDS011;12713;51.624;4.924;2023-10-08T07:06:38;19.67;;;8.57;;
24547;SDS011;12713;51.624;4.924;2023-10-08T07:09:05;21.05;;;6.78;;
24547;SDS011;12713;51.624;4.924;2023-10-08T07:11:47;19.58;;;8.18;;
24547;SDS011;12713;51.624;4.924;2023-10-08T07:14:14;13.07;;;6.80;;
24547;SDS011;12713;51.624;4.924;2023-10-08T07:16:40;14.25;;;7.80;;
24547;SDS011;12713;51.624;4.924;2023-10-08T07:19:07;16.10;;;7.68;;
24547;SDS011;12713;51.624;4.924;2023-10-08T07:21:45;17.40;;;7.63;;
24547;SDS011;12713;51.624;4.924;2023-10-08T07:24:12;14.93;;;7.93;;
24547;SDS011;12713;51.624;4.924;2023-10-08T07:26:47;22.92;;;8.05;;
24547;SDS011;12713;51.624;4.924;2023-10-08T07:29:14;18.98;;;8.68;;
24547;SDS011;12713;51.624;4.924;2023-10-08T07:31:44;18.75;;;8.18;;
24547;SDS011;12713;51.624;4.924;2023-10-08T07:34:17;22.63;;;9.15;;
24547;SDS011;12713;51.624;4.924;2023-10-08T07:36:56;15.60;;;7.35;;
24547;SDS011;12713;51.624;4.924;2023-10-08T07:39:22;14.80;;;7.47;;
24547;SDS011;12713;51.624;4.924;2023-10-08T07:42:02;20.30;;;8.60;;
24547;SDS011;12713;51.624;4.924;2023-10-08T07:44:33;15.23;;;7.13;;
24547;SDS011;12713;51.624;4.924;2023-10-08T07:47:04;17.45;;;8.25;;
24547;SDS011;12713;51.624;4.924;2023-10-08T07:49:33;20.10;;;8.65;;
24547;SDS011;12713;51.624;4.924;2023-10-08T07:52:01;20.02;;;8.55;;
24547;SDS011;12713;51.624;4.924;2023-10-08T07:54:29;24.02;;;9.35;;
24547;SDS011;12713;51.624;4.924;2023-10-08T07:56:59;19.42;;;7.18;;
24547;SDS011;12713;51.624;4.924;2023-10-08T07:59:37;22.45;;;8.65;;
24547;SDS011;12713;51.624;4.924;2023-10-08T08:02:04;20.90;;;8.57;;
24547;SDS011;12713;51.624;4.924;2023-10-08T08:04:35;22.23;;;9.90;;
24547;SDS011;12713;51.624;4.924;2023-10-08T08:07:04;19.85;;;8.15;;
24547;SDS011;12713;51.624;4.924;2023-10-08T08:09:32;19.98;;;9.25;;
24547;SDS011;12713;51.624;4.924;2023-10-08T08:12:13;27.75;;;10.00;;
24547;SDS011;12713;51.624;4.924;2023-10-08T08:14:39;30.58;;;11.75;;
24547;SDS011;12713;51.624;4.924;2023-10-08T08:17:09;21.42;;;9.98;;
24547;SDS011;12713;51.624;4.924;2023-10-08T08:19:42;24.67;;;9.40;;
24547;SDS011;12713;51.624;4.924;2023-10-08T08:22:18;24.13;;;10.65;;
24547;SDS011;12713;51.624;4.924;2023-10-08T08:24:48;17.48;;;9.30;;
24547;SDS011;12713;51.624;4.924;2023-10-08T08:27:18;24.33;;;10.25;;
24547;SDS011;12713;51.624;4.924;2023-10-08T08:29:57;23.77;;;10.43;;
24547;SDS011;12713;51.624;4.924;2023-10-08T08:32:35;28.42;;;11.27;;
24547;SDS011;12713;51.624;4.924;2023-10-08T08:35:04;23.30;;;10.38;;
24547;SDS011;12713;51.624;4.924;2023-10-08T08:37:32;23.38;;;11.95;;
24547;SDS011;12713;51.624;4.924;2023-10-08T08:40:10;26.50;;;10.27;;
24547;SDS011;12713;51.624;4.924;2023-10-08T08:42:49;33.45;;;11.85;;
24547;SDS011;12713;51.624;4.924;2023-10-08T08:45:19;36.70;;;11.80;;
24547;SDS011;12713;51.624;4.924;2023-10-08T08:47:46;39.22;;;14.85;;
24547;SDS011;12713;51.624;4.924;2023-10-08T08:50:12;33.15;;;11.77;;
24547;SDS011;12713;51.624;4.924;2023-10-08T08:52:38;37.00;;;13.48;;
24547;SDS011;12713;51.624;4.924;2023-10-08T08:55:08;46.05;;;16.73;;
24547;SDS011;12713;51.624;4.924;2023-10-08T08:57:39;40.72;;;14.60;;
24547;SDS011;12713;51.624;4.924;2023-10-08T09:00:07;39.92;;;15.70;;
24547;SDS011;12713;51.624;4.924;2023-10-08T09:02:35;40.47;;;16.25;;
24547;SDS011;12713;51.624;4.924;2023-10-08T09:05:01;36.60;;;16.20;;
24547;SDS011;12713;51.624;4.924;2023-10-08T09:10:37;40.25;;;17.40;;
24547;SDS011;12713;51.624;4.924;2023-10-08T09:22:40;33.03;;;15.60;;
24547;SDS011;12713;51.624;4.924;2023-10-08T09:25:08;37.67;;;16.05;;
24547;SDS011;12713;51.624;4.924;2023-10-08T09:27:35;38.78;;;16.55;;
24547;SDS011;12713;51.624;4.924;2023-10-08T09:30:05;41.67;;;17.38;;
24547;SDS011;12713;51.624;4.924;2023-10-08T09:32:34;41.72;;;17.75;;
24547;SDS011;12713;51.624;4.924;2023-10-08T09:35:00;37.28;;;15.57;;
24547;SDS011;12713;51.624;4.924;2023-10-08T09:37:30;39.10;;;17.00;;
24547;SDS011;12713;51.624;4.924;2023-10-08T09:39:59;46.80;;;17.55;;
24547;SDS011;12713;51.624;4.924;2023-10-08T09:42:32;42.45;;;17.30;;
24547;SDS011;12713;51.624;4.924;2023-10-08T09:45:00;37.47;;;15.40;;
24547;SDS011;12713;51.624;4.924;2023-10-08T09:47:31;39.08;;;16.73;;
24547;SDS011;12713;51.624;4.924;2023-10-08T09:50:01;38.63;;;17.65;;
24547;SDS011;12713;51.624;4.924;2023-10-08T09:52:39;37.10;;;17.52;;
24547;SDS011;12713;51.624;4.924;2023-10-08T09:55:10;41.83;;;16.88;;
24547;SDS011;12713;51.624;4.924;2023-10-08T09:57:36;35.63;;;16.20;;
24547;SDS011;12713;51.624;4.924;2023-10-08T10:00:03;34.47;;;14.85;;
24547;SDS011;12713;51.624;4.924;2023-10-08T10:02:34;37.00;;;15.88;;
24547;SDS011;12713;51.624;4.924;2023-10-08T10:05:01;35.45;;;15.27;;
24547;SDS011;12713;51.624;4.924;2023-10-08T10:07:27;33.35;;;15.25;;
24547;SDS011;12713;51.624;4.924;2023-10-08T10:09:53;32.55;;;14.70;;
24547;SDS011;12713;51.624;4.924;2023-10-08T10:12:24;37.00;;;14.93;;
24547;SDS011;12713;51.624;4.924;2023-10-08T10:14:52;40.20;;;16.90;;
24547;SDS011;12713;51.624;4.924;2023-10-08T10:17:22;34.50;;;16.55;;
24547;SDS011;12713;51.624;4.924;2023-10-08T10:19:53;32.08;;;14.93;;
24547;SDS011;12713;51.624;4.924;2023-10-08T10:22:35;38.30;;;17.23;;
24547;SDS011;12713;51.624;4.924;2023-10-08T10:25:10;47.55;;;16.45;;
24547;SDS011;12713;51.624;4.924;2023-10-08T10:30:21;38.17;;;18.20;;
24547;SDS011;12713;51.624;4.924;2023-10-08T10:32:51;43.55;;;18.42;;
24547;SDS011;12713;51.624;4.924;2023-10-08T10:35:17;38.03;;;17.55;;
24547;SDS011;12713;51.624;4.924;2023-10-08T10:37:46;43.70;;;18.45;;
24547;SDS011;12713;51.624;4.924;2023-10-08T10:40:22;39.60;;;17.75;;
24547;SDS011;12713;51.624;4.924;2023-10-08T10:43:07;52.20;;;19.17;;
24547;SDS011;12713;51.624;4.924;2023-10-08T10:45:45;34.10;;;18.15;;
24547;SDS011;12713;51.624;4.924;2023-10-08T10:48:13;34.83;;;17.02;;
24547;SDS011;12713;51.624;4.924;2023-10-08T10:50:48;41.88;;;17.38;;
24547;SDS011;12713;51.624;4.924;2023-10-08T10:53:29;33.28;;;16.55;;
24547;SDS011;12713;51.624;4.924;2023-10-08T10:55:58;32.83;;;16.92;;
24547;SDS011;12713;51.624;4.924;2023-10-08T10:58:34;38.75;;;18.00;;
24547;SDS011;12713;51.624;4.924;2023-10-08T11:01:09;30.35;;;15.55;;
24547;SDS011;12713;51.624;4.924;2023-10-08T11:03:51;40.50;;;17.90;;
24547;SDS011;12713;51.624;4.924;2023-10-08T11:06:18;35.47;;;17.40;;
24547;SDS011;12713;51.624;4.924;2023-10-08T11:08:51;37.47;;;17.00;;
24547;SDS011;12713;51.624;4.924;2023-10-08T11:11:18;33.83;;;15.95;;
24547;SDS011;12713;51.624;4.924;2023-10-08T11:13:44;28.35;;;14.23;;
24547;SDS011;12713;51.624;4.924;2023-10-08T11:16:22;37.72;;;16.42;;
24547;SDS011;12713;51.624;4.924;2023-10-08T11:18:48;46.85;;;16.63;;
24547;SDS011;12713;51.624;4.924;2023-10-08T11:21:16;31.92;;;16.38;;
24547;SDS011;12713;51.624;4.924;2023-10-08T11:23:48;36.53;;;15.45;;
24547;SDS011;12713;51.624;4.924;2023-10-08T11:26:40;30.88;;;14.25;;
24547;SDS011;12713;51.624;4.924;2023-10-08T11:29:19;39.80;;;15.30;;
24547;SDS011;12713;51.624;4.924;2023-10-08T11:31:51;35.50;;;15.73;;
24547;SDS011;12713;51.624;4.924;2023-10-08T11:34:18;38.47;;;15.40;;
24547;SDS011;12713;51.624;4.924;2023-10-08T11:36:52;39.15;;;18.27;;
24547;SDS011;12713;51.624;4.924;2023-10-08T11:39:20;37.00;;;18.15;;
24547;SDS011;12713;51.624;4.924;2023-10-08T11:42:05;32.22;;;16.38;;
24547;SDS011;12713;51.624;4.924;2023-10-08T11:44:51;29.58;;;18.75;;
24547;SDS011;12713;51.624;4.924;2023-10-08T11:47:17;38.33;;;17.55;;
24547;SDS011;12713;51.624;4.924;2023-10-08T11:49:46;38.97;;;18.63;;
24547;SDS011;12713;51.624;4.924;2023-10-08T11:52:16;36.08;;;18.48;;
24547;SDS011;12713;51.624;4.924;2023-10-08T11:54:49;36.83;;;18.60;;
24547;SDS011;12713;51.624;4.924;2023-10-08T11:57:18;37.78;;;18.80;;
24547;SDS011;12713;51.624;4.924;2023-10-08T11:59:49;38.22;;;19.92;;
24547;SDS011;12713;51.624;4.924;2023-10-08T12:02:19;39.72;;;20.17;;
24547;SDS011;12713;51.624;4.924;2023-10-08T12:04:45;39.00;;;19.25;;
24547;SDS011;12713;51.624;4.924;2023-10-08T12:07:14;37.45;;;19.33;;
24547;SDS011;12713;51.624;4.924;2023-10-08T12:09:42;40.25;;;20.10;;
24547;SDS011;12713;51.624;4.924;2023-10-08T12:12:08;35.65;;;20.25;;
24547;SDS011;12713;51.624;4.924;2023-10-08T12:14:38;33.70;;;19.98;;
24547;SDS011;12713;51.624;4.924;2023-10-08T12:17:05;34.97;;;19.98;;
24547;SDS011;12713;51.624;4.924;2023-10-08T12:19:37;42.92;;;18.73;;
24547;SDS011;12713;51.624;4.924;2023-10-08T12:22:05;37.92;;;18.80;;
24547;SDS011;12713;51.624;4.924;2023-10-08T12:24:36;35.75;;;18.80;;
24547;SDS011;12713;51.624;4.924;2023-10-08T12:27:03;33.10;;;18.70;;
24547;SDS011;12713;51.624;4.924;2023-10-08T12:29:29;39.75;;;17.40;;
24547;SDS011;12713;51.624;4.924;2023-10-08T12:31:58;33.70;;;18.35;;
24547;SDS011;12713;51.624;4.924;2023-10-08T12:34:24;39.45;;;18.50;;
24547;SDS011;12713;51.624;4.924;2023-10-08T12:36:54;43.38;;;17.90;;
24547;SDS011;12713;51.624;4.924;2023-10-08T12:39:23;37.28;;;18.40;;
24547;SDS011;12713;51.624;4.924;2023-10-08T12:41:53;39.38;;;18.38;;
24547;SDS011;12713;51.624;4.924;2023-10-08T12:44:19;37.45;;;18.52;;
24547;SDS011;12713;51.624;4.924;2023-10-08T12:46:49;41.72;;;19.75;;
24547;SDS011;12713;51.624;4.924;2023-10-08T12:49:16;42.17;;;18.88;;
24547;SDS011;12713;51.624;4.924;2023-10-08T12:51:55;41.22;;;19.55;;
24547;SDS011;12713;51.624;4.924;2023-10-08T12:54:24;44.67;;;19.45;;
24547;SDS011;12713;51.624;4.924;2023-10-08T12:56:54;35.22;;;18.95;;
24547;SDS011;12713;51.624;4.924;2023-10-08T12:59:21;37.33;;;18.88;;
24547;SDS011;12713;51.624;4.924;2023-10-08T13:01:48;33.25;;;18.20;;
24547;SDS011;12713;51.624;4.924;2023-10-08T13:04:21;38.75;;;18.75;;
24547;SDS011;12713;51.624;4.924;2023-10-08T13:06:56;38.97;;;19.58;;
24547;SDS011;12713;51.624;4.924;2023-10-08T13:09:23;39.10;;;21.23;;
24547;SDS011;12713;51.624;4.924;2023-10-08T13:11:49;35.92;;;18.83;;
24547;SDS011;12713;51.624;4.924;2023-10-08T13:14:18;37.35;;;18.70;;
24547;SDS011;12713;51.624;4.924;2023-10-08T13:16:47;34.45;;;17.45;;
24547;SDS011;12713;51.624;4.924;2023-10-08T13:19:14;41.38;;;19.08;;
24547;SDS011;12713;51.624;4.924;2023-10-08T13:21:44;35.47;;;18.63;;
24547;SDS011;12713;51.624;4.924;2023-10-08T13:24:10;30.02;;;16.88;;
24547;SDS011;12713;51.624;4.924;2023-10-08T13:26:39;38.83;;;18.55;;
24547;SDS011;12713;51.624;4.924;2023-10-08T13:29:07;40.40;;;19.50;;
24547;SDS011;12713;51.624;4.924;2023-10-08T13:31:34;34.55;;;18.85;;
24547;SDS011;12713;51.624;4.924;2023-10-08T13:34:03;35.30;;;17.75;;
24547;SDS011;12713;51.624;4.924;2023-10-08T13:36:33;37.78;;;19.08;;
24547;SDS011;12713;51.624;4.924;2023-10-08T13:38:59;34.58;;;19.70;;
24547;SDS011;12713;51.624;4.924;2023-10-08T13:41:25;32.10;;;19.27;;
24547;SDS011;12713;51.624;4.924;2023-10-08T13:43:54;32.42;;;18.75;;
24547;SDS011;12713;51.624;4.924;2023-10-08T13:46:30;33.72;;;17.70;;
24547;SDS011;12713;51.624;4.924;2023-10-08T13:49:01;30.42;;;18.67;;
24547;SDS011;12713;51.624;4.924;2023-10-08T13:51:27;33.50;;;19.98;;
24547;SDS011;12713;51.624;4.924;2023-10-08T13:53:56;41.03;;;19.52;;
24547;SDS011;12713;51.624;4.924;2023-10-08T13:56:28;31.52;;;18.60;;
24547;SDS011;12713;51.624;4.924;2023-10-08T13:59:00;41.00;;;19.80;;
24547;SDS011;12713;51.624;4.924;2023-10-08T14:01:32;38.90;;;18.80;;
24547;SDS011;12713;51.624;4.924;2023-10-08T14:03:59;34.28;;;19.30;;
24547;SDS011;12713;51.624;4.924;2023-10-08T14:06:33;37.25;;;20.13;;
24547;SDS011;12713;51.624;4.924;2023-10-08T14:08:59;30.02;;;18.20;;
24547;SDS011;12713;51.624;4.924;2023-10-08T14:11:26;30.35;;;17.70;;
24547;SDS011;12713;51.624;4.924;2023-10-08T14:13:58;35.63;;;19.02;;
24547;SDS011;12713;51.624;4.924;2023-10-08T14:16:30;37.23;;;20.50;;
24547;SDS011;12713;51.624;4.924;2023-10-08T14:18:57;34.13;;;18.55;;
24547;SDS011;12713;51.624;4.924;2023-10-08T14:21:25;37.47;;;20.55;;
24547;SDS011;12713;51.624;4.924;2023-10-08T14:23:58;39.40;;;18.33;;
24547;SDS011;12713;51.624;4.924;2023-10-08T14:26:40;31.63;;;17.27;;
24547;SDS011;12713;51.624;4.924;2023-10-08T14:29:07;36.08;;;18.42;;
24547;SDS011;12713;51.624;4.924;2023-10-08T14:31:39;39.47;;;17.67;;
24547;SDS011;12713;51.624;4.924;2023-10-08T14:34:07;38.47;;;18.35;;
24547;SDS011;12713;51.624;4.924;2023-10-08T14:36:49;33.88;;;17.42;;
24547;SDS011;12713;51.624;4.924;2023-10-08T14:39:34;31.88;;;17.52;;
24547;SDS011;12713;51.624;4.924;2023-10-08T14:42:18;30.17;;;15.73;;
24547;SDS011;12713;51.624;4.924;2023-10-08T14:45:03;28.95;;;16.08;;
24547;SDS011;12713;51.624;4.924;2023-10-08T14:47:36;32.30;;;17.33;;
24547;SDS011;12713;51.624;4.924;2023-10-08T14:50:02;37.75;;;17.65;;
24547;SDS011;12713;51.624;4.924;2023-10-08T14:52:30;29.25;;;16.13;;
24547;SDS011;12713;51.624;4.924;2023-10-08T14:54:57;36.55;;;17.48;;
24547;SDS011;12713;51.624;4.924;2023-10-08T14:57:26;28.35;;;15.00;;
24547;SDS011;12713;51.624;4.924;2023-10-08T14:59:53;31.70;;;16.50;;
24547;SDS011;12713;51.624;4.924;2023-10-08T15:02:19;33.20;;;16.90;;
24547;SDS011;12713;51.624;4.924;2023-10-08T15:04:45;32.50;;;16.42;;
24547;SDS011;12713;51.624;4.924;2023-10-08T15:07:14;33.78;;;16.80;;
24547;SDS011;12713;51.624;4.924;2023-10-08T15:09:46;34.70;;;16.92;;
24547;SDS011;12713;51.624;4.924;2023-10-08T15:12:14;36.47;;;19.08;;
24547;SDS011;12713;51.624;4.924;2023-10-08T15:14:45;31.83;;;16.75;;
24547;SDS011;12713;51.624;4.924;2023-10-08T15:17:17;31.00;;;16.60;;